createdAt,value
2018-09-22T00:00:23.993Z,15.54
2018-09-22T00:01:23.691Z,15.55
2018-09-22T00:02:23.998Z,15.55
2018-09-22T00:03:23.941Z,15.43
2018-09-22T00:04:23.691Z,15.44
2018-09-22T00:05:23.938Z,15.49
2018-09-22T00:06:23.682Z,15.47
2018-09-22T00:07:23.678Z,15.44
2018-09-22T00:08:23.677Z,15.37
2018-09-22T00:09:23.979Z,15.36
2018-09-22T00:10:23.936Z,15.29
2018-09-22T00:11:23.689Z,15.27
2018-09-22T00:12:23.421Z,15.31
2018-09-22T00:13:23.675Z,15.21
2018-09-22T00:14:23.680Z,15.36
2018-09-22T00:15:23.679Z,15.39
2018-09-22T00:16:23.930Z,15.42
2018-09-22T00:17:23.726Z,15.4
2018-09-22T00:18:23.412Z,15.35
2018-09-22T00:19:23.662Z,15.37
2018-09-22T00:20:23.920Z,15.28
2018-09-22T00:21:23.660Z,15.28
2018-09-22T00:22:23.658Z,15.28
2018-09-22T00:23:23.895Z,15.17
2018-09-22T00:24:23.891Z,15.18
2018-09-22T00:25:23.629Z,15.04
2018-09-22T00:26:23.643Z,15.04
2018-09-22T00:27:24.286Z,15.04
2018-09-22T00:28:23.889Z,15.03
2018-09-22T00:29:23.388Z,15.09
2018-09-22T00:30:23.886Z,15
2018-09-22T00:31:23.389Z,15
2018-09-22T00:32:23.926Z,14.92
2018-09-22T00:33:23.627Z,14.97
2018-09-22T00:34:23.900Z,14.92
2018-09-22T00:35:23.924Z,15.03
2018-09-22T00:36:23.367Z,15.06
2018-09-22T00:37:23.882Z,14.99
2018-09-22T00:38:23.869Z,15.04
2018-09-22T00:39:23.632Z,14.99
2018-09-22T00:40:23.648Z,14.94
2018-09-22T00:41:23.891Z,14.92
2018-09-22T00:42:23.626Z,14.94
2018-09-22T00:43:23.876Z,14.99
2018-09-22T00:44:23.634Z,15.03
2018-09-22T00:45:23.625Z,14.96
2018-09-22T00:46:23.377Z,14.88
2018-09-22T00:47:23.718Z,14.91
2018-09-22T00:48:23.631Z,14.97
2018-09-22T00:49:23.715Z,14.89
2018-09-22T00:50:23.357Z,14.85
2018-09-22T00:51:23.612Z,14.88
2018-09-22T00:52:23.961Z,14.91
2018-09-22T00:53:23.375Z,14.91
2018-09-22T00:54:23.864Z,14.85
2018-09-22T00:55:23.608Z,14.88
2018-09-22T00:56:23.350Z,14.81
2018-09-22T00:57:23.403Z,14.85
2018-09-22T00:58:23.865Z,14.89
2018-09-22T00:59:23.597Z,14.72
2018-09-22T01:00:23.597Z,14.62
2018-09-22T01:01:23.853Z,14.63
2018-09-22T01:02:24.749Z,14.63
2018-09-22T01:03:23.337Z,14.59
2018-09-22T01:04:23.336Z,14.54
2018-09-22T01:05:23.597Z,14.62
2018-09-22T01:06:23.833Z,14.58
2018-09-22T01:07:23.889Z,14.58
2018-09-22T01:08:23.578Z,14.51
2018-09-22T01:09:23.588Z,14.54
2018-09-22T01:10:23.587Z,14.53
2018-09-22T01:11:23.594Z,14.41
2018-09-22T01:12:23.375Z,14.5
2018-09-22T01:13:23.572Z,14.53
2018-09-22T01:14:23.582Z,14.48
2018-09-22T01:15:23.886Z,14.48
2018-09-22T01:16:23.318Z,14.48
2018-09-22T01:17:23.866Z,14.54
2018-09-22T01:18:23.571Z,14.51
2018-09-22T01:19:23.326Z,14.54
2018-09-22T01:20:23.821Z,14.59
2018-09-22T01:21:23.816Z,14.53
2018-09-22T01:22:23.618Z,14.51
2018-09-22T01:23:23.820Z,14.5
2018-09-22T01:24:23.554Z,14.53
2018-09-22T01:25:23.551Z,14.47
2018-09-22T01:26:23.306Z,14.53
2018-09-22T01:27:23.592Z,14.5
2018-09-22T01:28:23.797Z,14.43
2018-09-22T01:29:23.546Z,14.45
2018-09-22T01:30:23.563Z,14.43
2018-09-22T01:31:23.555Z,14.36
2018-09-22T01:32:26.410Z,14.4
2018-09-22T01:33:23.295Z,14.43
2018-09-22T01:34:23.796Z,14.43
2018-09-22T01:35:23.532Z,14.43
2018-09-22T01:36:23.541Z,14.35
2018-09-22T01:37:23.335Z,14.37
2018-09-22T01:38:23.780Z,14.37
2018-09-22T01:39:23.529Z,14.37
2018-09-22T01:40:23.533Z,14.35
2018-09-22T01:41:23.515Z,14.35
2018-09-22T01:42:23.581Z,14.33
2018-09-22T01:43:23.510Z,14.33
2018-09-22T01:44:23.787Z,14.33
2018-09-22T01:45:23.777Z,14.36
2018-09-22T01:46:23.280Z,14.36
2018-09-22T01:47:23.830Z,14.29
2018-09-22T01:48:23.518Z,14.3
2018-09-22T01:49:23.248Z,14.22
2018-09-22T01:50:23.755Z,14.2
2018-09-22T01:51:23.755Z,14.18
2018-09-22T01:52:23.615Z,14.18
2018-09-22T01:53:23.762Z,14.17
2018-09-22T01:54:23.748Z,14.18
2018-09-22T01:55:23.745Z,14.15
2018-09-22T01:56:23.237Z,14.2
2018-09-22T01:57:23.294Z,14.17
2018-09-22T01:58:23.746Z,14.17
2018-09-22T01:59:23.494Z,14.22
2018-09-22T02:00:23.245Z,14.18
2018-09-22T02:01:23.473Z,14.22
2018-09-22T02:02:24.679Z,14.2
2018-09-22T02:03:23.720Z,14.25
2018-09-22T02:04:23.732Z,14.22
2018-09-22T02:05:23.246Z,14.23
2018-09-22T02:06:23.719Z,14.23
2018-09-22T02:07:23.458Z,14.2
2018-09-22T02:08:23.720Z,14.25
2018-09-22T02:09:23.716Z,14.23
2018-09-22T02:10:23.230Z,14.17
2018-09-22T02:11:23.710Z,14.12
2018-09-22T02:12:23.718Z,14.2
2018-09-22T02:13:23.202Z,14.07
2018-09-22T02:14:23.466Z,14.05
2018-09-22T02:15:23.703Z,14.2
2018-09-22T02:16:23.190Z,14.14
2018-09-22T02:17:23.452Z,14.05
2018-09-22T02:18:23.446Z,14.14
2018-09-22T02:19:23.701Z,14.07
2018-09-22T02:20:23.201Z,14.1
2018-09-22T02:21:23.442Z,14.11
2018-09-22T02:22:23.687Z,14.11
2018-09-22T02:23:23.436Z,14.11
2018-09-22T02:24:23.429Z,14.15
2018-09-22T02:25:23.948Z,14.1
2018-09-22T02:26:23.672Z,14.11
2018-09-22T02:27:23.414Z,14.12
2018-09-22T02:28:23.686Z,14.11
2018-09-22T02:29:23.423Z,14.11
2018-09-22T02:30:23.674Z,14.05
2018-09-22T02:31:23.412Z,14.08
2018-09-22T02:32:23.665Z,14.1
2018-09-22T02:33:23.424Z,14.07
2018-09-22T02:34:23.170Z,14.08
2018-09-22T02:35:23.677Z,14.15
2018-09-22T02:36:23.671Z,14.14
2018-09-22T02:37:23.663Z,14.08
2018-09-22T02:38:23.662Z,14.22
2018-09-22T02:39:23.669Z,14.12
2018-09-22T02:40:23.662Z,14.1
2018-09-22T02:41:23.671Z,14.11
2018-09-22T02:42:23.650Z,14.12
2018-09-22T02:43:23.675Z,14.1
2018-09-22T02:44:23.389Z,14.12
2018-09-22T02:45:23.643Z,14.14
2018-09-22T02:46:23.644Z,14.05
2018-09-22T02:47:23.702Z,14.08
2018-09-22T02:48:23.643Z,14.11
2018-09-22T02:49:23.375Z,14.08
2018-09-22T02:50:23.373Z,14.08
2018-09-22T02:51:23.384Z,14.11
2018-09-22T02:52:23.364Z,14.03
2018-09-22T02:53:23.628Z,14.04
2018-09-22T02:54:23.624Z,14
2018-09-22T02:55:23.614Z,14.05
2018-09-22T02:56:23.625Z,13.97
2018-09-22T02:57:23.610Z,13.93
2018-09-22T02:58:23.356Z,13.96
2018-09-22T02:59:23.617Z,13.93
2018-09-22T03:00:23.625Z,13.97
2018-09-22T03:01:23.615Z,14
2018-09-22T03:02:23.623Z,13.9
2018-09-22T03:03:23.355Z,13.97
2018-09-22T03:04:23.611Z,13.99
2018-09-22T03:05:23.603Z,14.07
2018-09-22T03:06:23.345Z,14.11
2018-09-22T03:07:23.337Z,14.05
2018-09-22T03:08:23.342Z,14.07
2018-09-22T03:09:23.588Z,14.05
2018-09-22T03:10:23.327Z,14
2018-09-22T03:11:23.321Z,14.03
2018-09-22T03:12:23.347Z,13.99
2018-09-22T03:13:23.577Z,13.97
2018-09-22T03:14:23.322Z,13.97
2018-09-22T03:15:23.547Z,14
2018-09-22T03:16:23.590Z,14
2018-09-22T03:17:23.585Z,14.03
2018-09-22T03:18:23.057Z,14.03
2018-09-22T03:19:23.578Z,13.99
2018-09-22T03:20:23.575Z,14.03
2018-09-22T03:21:23.345Z,13.99
2018-09-22T03:22:23.584Z,14.03
2018-09-22T03:23:23.561Z,13.93
2018-09-22T03:24:23.615Z,14
2018-09-22T03:25:23.551Z,13.96
2018-09-22T03:26:23.030Z,13.92
2018-09-22T03:27:23.323Z,13.93
2018-09-22T03:28:23.310Z,13.9
2018-09-22T03:29:23.279Z,13.83
2018-09-22T03:30:23.561Z,13.87
2018-09-22T03:31:23.580Z,13.81
2018-09-22T03:32:23.557Z,13.89
2018-09-22T03:33:23.528Z,13.85
2018-09-22T03:34:23.537Z,13.85
2018-09-22T03:35:23.270Z,13.85
2018-09-22T03:36:23.543Z,13.86
2018-09-22T03:37:23.528Z,13.81
2018-09-22T03:38:23.272Z,13.83
2018-09-22T03:39:23.539Z,13.78
2018-09-22T03:40:23.280Z,13.68
2018-09-22T03:41:23.618Z,13.68
2018-09-22T03:42:23.528Z,13.68
2018-09-22T03:43:23.273Z,13.62
2018-09-22T03:44:23.526Z,13.68
2018-09-22T03:45:23.527Z,13.71
2018-09-22T03:46:23.268Z,13.68
2018-09-22T03:47:23.516Z,13.67
2018-09-22T03:48:22.982Z,13.65
2018-09-22T03:49:23.260Z,13.71
2018-09-22T03:50:23.505Z,13.74
2018-09-22T03:51:23.515Z,13.87
2018-09-22T03:52:22.967Z,13.85
2018-09-22T03:53:23.545Z,13.92
2018-09-22T03:54:23.511Z,13.89
2018-09-22T03:55:23.505Z,13.96
2018-09-22T03:56:23.479Z,13.97
2018-09-22T03:57:23.496Z,14.14
2018-09-22T03:58:23.212Z,14.2
2018-09-22T03:59:22.958Z,14.17
2018-09-22T04:00:23.479Z,14.2
2018-09-22T04:01:23.483Z,14.18
2018-09-22T04:02:23.227Z,14.23
2018-09-22T04:03:23.490Z,14.14
2018-09-22T04:04:23.205Z,14.18
2018-09-22T04:05:23.208Z,14.14
2018-09-22T04:06:23.476Z,14.11
2018-09-22T04:07:22.936Z,14.08
2018-09-22T04:08:23.201Z,13.96
2018-09-22T04:09:23.208Z,13.92
2018-09-22T04:10:23.502Z,14
2018-09-22T04:11:23.463Z,13.93
2018-09-22T04:12:23.445Z,13.93
2018-09-22T04:13:23.178Z,13.81
2018-09-22T04:14:23.205Z,13.87
2018-09-22T04:15:23.523Z,13.79
2018-09-22T04:16:23.427Z,13.85
2018-09-22T04:17:22.903Z,13.86
2018-09-22T04:18:23.439Z,13.9
2018-09-22T04:19:23.163Z,13.9
2018-09-22T04:20:23.155Z,13.93
2018-09-22T04:21:23.416Z,13.99
2018-09-22T04:22:23.156Z,13.97
2018-09-22T04:23:23.161Z,13.95
2018-09-22T04:24:23.152Z,13.9
2018-09-22T04:25:23.398Z,13.89
2018-09-22T04:26:22.880Z,13.79
2018-09-22T04:27:23.151Z,13.81
2018-09-22T04:28:23.411Z,13.79
2018-09-22T04:29:23.420Z,13.83
2018-09-22T04:30:23.400Z,13.79
2018-09-22T04:31:23.400Z,13.7
2018-09-22T04:32:23.229Z,13.7
2018-09-22T04:33:23.699Z,13.68
2018-09-22T04:34:22.860Z,13.71
2018-09-22T04:35:23.389Z,13.7
2018-09-22T04:36:23.381Z,13.81
2018-09-22T04:37:23.371Z,13.83
2018-09-22T04:38:23.128Z,13.71
2018-09-22T04:39:23.380Z,13.72
2018-09-22T04:40:22.842Z,13.68
2018-09-22T04:41:23.359Z,13.71
2018-09-22T04:42:23.354Z,13.74
2018-09-22T04:43:22.916Z,13.77
2018-09-22T04:44:23.369Z,13.72
2018-09-22T04:45:23.353Z,13.77
2018-09-22T04:46:23.148Z,13.68
2018-09-22T04:47:23.354Z,13.74
2018-09-22T04:48:23.352Z,13.81
2018-09-22T04:49:23.406Z,13.77
2018-09-22T04:50:23.074Z,13.77
2018-09-22T04:51:23.328Z,13.79
2018-09-22T04:52:23.338Z,13.85
2018-09-22T04:53:22.809Z,13.85
2018-09-22T04:54:23.070Z,13.78
2018-09-22T04:55:23.061Z,13.92
2018-09-22T04:56:23.051Z,13.96
2018-09-22T04:57:23.072Z,13.99
2018-09-22T04:58:23.322Z,14.1
2018-09-22T04:59:23.049Z,14.08
2018-09-22T05:00:23.060Z,14.04
2018-09-22T05:01:23.305Z,14.14
2018-09-22T05:02:23.305Z,14.07
2018-09-22T05:03:23.046Z,14.17
2018-09-22T05:04:23.040Z,14.2
2018-09-22T05:05:23.307Z,14.26
2018-09-22T05:06:23.046Z,14.25
2018-09-22T05:07:23.043Z,14.23
2018-09-22T05:08:23.030Z,14.23
2018-09-22T05:09:23.028Z,14.28
2018-09-22T05:10:23.026Z,14.23
2018-09-22T05:11:23.026Z,14.18
2018-09-22T05:12:22.778Z,14.18
2018-09-22T05:13:23.271Z,14.15
2018-09-22T05:14:22.763Z,14.2
2018-09-22T05:15:23.267Z,14.15
2018-09-22T05:16:23.263Z,14.26
2018-09-22T05:17:23.009Z,14.18
2018-09-22T05:18:23.420Z,14.25
2018-09-22T05:19:23.008Z,14.22
2018-09-22T05:20:23.253Z,14.22
2018-09-22T05:21:23.027Z,14.18
2018-09-22T05:22:23.269Z,14.28
2018-09-22T05:23:22.995Z,14.2
2018-09-22T05:24:23.244Z,14.22
2018-09-22T05:25:22.984Z,14.12
2018-09-22T05:26:23.244Z,14.08
2018-09-22T05:27:23.247Z,14.12
2018-09-22T05:28:23.236Z,14.12
2018-09-22T05:29:23.233Z,14.05
2018-09-22T05:30:23.246Z,14.05
2018-09-22T05:31:23.228Z,14
2018-09-22T05:32:23.213Z,13.96
2018-09-22T05:33:23.284Z,13.97
2018-09-22T05:34:22.974Z,14.07
2018-09-22T05:35:23.237Z,14.14
2018-09-22T05:36:23.209Z,14.11
2018-09-22T05:37:23.209Z,14.2
2018-09-22T05:38:23.018Z,14.1
2018-09-22T05:39:22.959Z,14.12
2018-09-22T05:40:23.211Z,14.22
2018-09-22T05:41:23.214Z,14.11
2018-09-22T05:42:23.196Z,14
2018-09-22T05:43:22.994Z,14.12
2018-09-22T05:44:22.957Z,14.1
2018-09-22T05:45:22.963Z,14.11
2018-09-22T05:46:23.191Z,14.08
2018-09-22T05:47:22.936Z,14.1
2018-09-22T05:48:22.978Z,14.12
2018-09-22T05:49:23.180Z,14.08
2018-09-22T05:50:22.965Z,14.2
2018-09-22T05:51:22.673Z,14.18
2018-09-22T05:52:22.929Z,14.15
2018-09-22T05:53:23.171Z,14.18
2018-09-22T05:54:23.188Z,14.15
2018-09-22T05:55:23.168Z,14.2
2018-09-22T05:56:23.157Z,14.17
2018-09-22T05:57:22.909Z,14.18
2018-09-22T05:58:24.783Z,14.15
2018-09-22T05:59:23.158Z,14.15
2018-09-22T06:00:22.897Z,14.2
2018-09-22T06:01:23.159Z,14.17
2018-09-22T06:02:23.145Z,14.17
2018-09-22T06:03:23.008Z,14.23
2018-09-22T06:04:23.165Z,14.28
2018-09-22T06:05:23.155Z,14.33
2018-09-22T06:06:23.166Z,14.4
2018-09-22T06:07:22.901Z,14.44
2018-09-22T06:08:23.147Z,14.41
2018-09-22T06:09:23.168Z,14.55
2018-09-22T06:10:23.163Z,14.58
2018-09-22T06:11:23.138Z,14.6
2018-09-22T06:12:23.163Z,14.6
2018-09-22T06:13:22.913Z,14.7
2018-09-22T06:14:22.873Z,14.66
2018-09-22T06:15:22.866Z,14.68
2018-09-22T06:16:23.131Z,14.69
2018-09-22T06:17:23.139Z,14.81
2018-09-22T06:18:23.226Z,14.88
2018-09-22T06:19:22.618Z,14.86
2018-09-22T06:20:23.127Z,14.92
2018-09-22T06:21:23.108Z,14.92
2018-09-22T06:22:22.871Z,14.88
2018-09-22T06:23:22.952Z,14.88
2018-09-22T06:24:23.107Z,14.91
2018-09-22T06:25:22.881Z,14.91
2018-09-22T06:26:23.130Z,15
2018-09-22T06:27:23.118Z,15.02
2018-09-22T06:28:23.111Z,15.02
2018-09-22T06:29:23.103Z,15.06
2018-09-22T06:30:23.104Z,15.06
2018-09-22T06:31:22.909Z,15.18
2018-09-22T06:32:23.098Z,15.17
2018-09-22T06:33:23.402Z,15.17
2018-09-22T06:34:23.101Z,15.22
2018-09-22T06:35:23.096Z,15.28
2018-09-22T06:36:23.113Z,15.33
2018-09-22T06:37:23.201Z,15.35
2018-09-22T06:38:23.098Z,15.24
2018-09-22T06:39:22.848Z,15.28
2018-09-22T06:40:22.580Z,15.28
2018-09-22T06:41:22.827Z,15.33
2018-09-22T06:42:23.097Z,15.35
2018-09-22T06:43:22.598Z,15.31
2018-09-22T06:44:23.094Z,15.36
2018-09-22T06:45:23.098Z,15.42
2018-09-22T06:46:23.035Z,15.47
2018-09-22T06:47:22.825Z,15.49
2018-09-22T06:48:22.883Z,15.64
2018-09-22T06:49:23.089Z,15.7
2018-09-22T06:50:22.581Z,15.77
2018-09-22T06:51:23.092Z,15.83
2018-09-22T06:52:22.819Z,16.09
2018-09-22T06:53:23.088Z,16.21
2018-09-22T06:54:22.555Z,16.42
2018-09-22T06:55:23.067Z,16.5
2018-09-22T06:56:23.076Z,16.58
2018-09-22T06:57:23.071Z,16.6
2018-09-22T06:58:23.178Z,16.57
2018-09-22T06:59:22.810Z,16.71
2018-09-22T07:00:22.835Z,16.79
2018-09-22T07:01:23.099Z,16.91
2018-09-22T07:02:22.824Z,17.09
2018-09-22T07:03:23.286Z,17.56
2018-09-22T07:04:22.831Z,17.97
2018-09-22T07:05:23.075Z,18.35
2018-09-22T07:06:23.321Z,18.52
2018-09-22T07:07:22.568Z,18.68
2018-09-22T07:08:23.061Z,18.81
2018-09-22T07:09:23.080Z,18.52
2018-09-22T07:10:22.575Z,18.47
2018-09-22T07:11:22.833Z,18.43
2018-09-22T07:12:23.099Z,18.33
2018-09-22T07:13:23.080Z,18.44
2018-09-22T07:14:22.842Z,18.41
2018-09-22T07:15:22.820Z,18.73
2018-09-22T07:16:22.826Z,19
2018-09-22T07:17:22.583Z,19.12
2018-09-22T07:18:22.619Z,19.26
2018-09-22T07:19:23.195Z,19.21
2018-09-22T07:20:22.845Z,18.99
2018-09-22T07:21:22.831Z,19.04
2018-09-22T07:22:22.829Z,18.92
2018-09-22T07:23:22.833Z,18.56
2018-09-22T07:24:23.112Z,18.37
2018-09-22T07:25:22.962Z,18.03
2018-09-22T07:26:23.108Z,17.79
2018-09-22T07:27:23.108Z,17.68
2018-09-22T07:28:22.851Z,17.67
2018-09-22T07:29:23.110Z,17.51
2018-09-22T07:30:23.110Z,17.44
2018-09-22T07:31:23.108Z,17.48
2018-09-22T07:32:22.590Z,17.44
2018-09-22T07:33:23.964Z,17.52
2018-09-22T07:34:23.131Z,17.54
2018-09-22T07:35:23.134Z,17.64
2018-09-22T07:36:23.111Z,17.71
2018-09-22T07:37:22.850Z,17.82
2018-09-22T07:38:23.127Z,17.89
2018-09-22T07:39:22.985Z,17.94
2018-09-22T07:40:23.123Z,18.18
2018-09-22T07:41:22.879Z,18.2
2018-09-22T07:42:22.857Z,18.22
2018-09-22T07:43:23.165Z,18.23
2018-09-22T07:44:23.120Z,18.22
2018-09-22T07:45:22.859Z,18.1
2018-09-22T07:46:22.865Z,18.13
2018-09-22T07:47:22.867Z,18.08
2018-09-22T07:48:23.187Z,18.22
2018-09-22T07:49:23.122Z,18.08
2018-09-22T07:50:22.888Z,18.13
2018-09-22T07:51:22.905Z,18.13
2018-09-22T07:52:22.616Z,18.2
2018-09-22T07:53:22.915Z,18.25
2018-09-22T07:54:22.874Z,18.34
2018-09-22T07:55:22.614Z,18.45
2018-09-22T07:56:23.144Z,18.58
2018-09-22T07:57:23.292Z,18.7
2018-09-22T07:58:22.878Z,18.86
2018-09-22T07:59:22.902Z,18.89
2018-09-22T08:00:23.077Z,18.8
2018-09-22T08:01:22.949Z,18.63
2018-09-22T08:02:23.144Z,18.7
2018-09-22T08:03:23.739Z,18.71
2018-09-22T08:04:22.638Z,18.86
2018-09-22T08:05:23.131Z,18.83
2018-09-22T08:06:22.895Z,18.73
2018-09-22T08:07:22.900Z,18.6
2018-09-22T08:08:22.914Z,18.58
2018-09-22T08:09:22.892Z,18.63
2018-09-22T08:10:22.893Z,18.75
2018-09-22T08:11:23.141Z,18.84
2018-09-22T08:12:22.908Z,18.93
2018-09-22T08:13:22.892Z,18.92
2018-09-22T08:14:22.892Z,18.81
2018-09-22T08:15:22.657Z,18.63
2018-09-22T08:16:22.645Z,18.56
2018-09-22T08:17:22.911Z,18.5
2018-09-22T08:18:22.909Z,18.35
2018-09-22T08:19:22.908Z,18.35
2018-09-22T08:20:22.913Z,18.47
2018-09-22T08:21:22.907Z,18.56
2018-09-22T08:22:22.914Z,18.5
2018-09-22T08:23:22.914Z,18.45
2018-09-22T08:24:22.906Z,18.62
2018-09-22T08:25:23.446Z,18.6
2018-09-22T08:26:23.168Z,18.7
2018-09-22T08:27:23.185Z,18.68
2018-09-22T08:28:22.913Z,18.84
2018-09-22T08:29:22.919Z,18.99
2018-09-22T08:30:22.929Z,18.95
2018-09-22T08:31:22.924Z,18.88
2018-09-22T08:32:22.942Z,18.83
2018-09-22T08:33:22.671Z,18.83
2018-09-22T08:34:23.203Z,18.96
2018-09-22T08:35:22.953Z,18.9
2018-09-22T08:36:23.309Z,18.78
2018-09-22T08:37:23.082Z,18.59
2018-09-22T08:38:22.952Z,18.4
2018-09-22T08:39:22.958Z,18.22
2018-09-22T08:40:23.200Z,18.13
2018-09-22T08:41:22.960Z,18.07
2018-09-22T08:42:23.206Z,18.13
2018-09-22T08:43:22.952Z,18.05
2018-09-22T08:44:22.959Z,18.01
2018-09-22T08:45:22.971Z,17.97
2018-09-22T08:46:22.947Z,18.03
2018-09-22T08:47:22.950Z,18.05
2018-09-22T08:48:22.956Z,18.11
2018-09-22T08:49:22.976Z,18.13
2018-09-22T08:50:22.956Z,18.33
2018-09-22T08:51:22.978Z,18.38
2018-09-22T08:52:22.960Z,18.43
2018-09-22T08:53:22.986Z,18.31
2018-09-22T08:54:22.706Z,18.34
2018-09-22T08:55:22.951Z,18.41
2018-09-22T08:56:23.225Z,18.37
2018-09-22T08:57:22.959Z,18.58
2018-09-22T08:58:22.966Z,18.7
2018-09-22T08:59:23.048Z,18.8
2018-09-22T09:00:23.313Z,18.84
2018-09-22T09:01:22.970Z,18.96
2018-09-22T09:02:23.000Z,18.93
2018-09-22T09:03:22.988Z,18.88
2018-09-22T09:04:23.246Z,18.81
2018-09-22T09:05:22.719Z,18.84
2018-09-22T09:06:22.991Z,18.75
2018-09-22T09:07:22.732Z,18.74
2018-09-22T09:08:22.963Z,18.78
2018-09-22T09:09:22.982Z,18.88
2018-09-22T09:10:22.980Z,18.8
2018-09-22T09:11:23.433Z,18.55
2018-09-22T09:12:22.994Z,18.56
2018-09-22T09:13:23.392Z,18.65
2018-09-22T09:14:23.277Z,18.35
2018-09-22T09:15:23.248Z,18.23
2018-09-22T09:16:22.992Z,18.25
2018-09-22T09:17:22.996Z,18.28
2018-09-22T09:18:23.256Z,18.34
2018-09-22T09:19:22.989Z,18.34
2018-09-22T09:20:22.996Z,18.47
2018-09-22T09:21:22.735Z,18.52
2018-09-22T09:22:22.996Z,18.68
2018-09-22T09:23:23.002Z,18.84
2018-09-22T09:24:23.253Z,19.02
2018-09-22T09:25:23.010Z,19.04
2018-09-22T09:26:23.252Z,18.99
2018-09-22T09:27:22.776Z,19.09
2018-09-22T09:28:23.263Z,19.11
2018-09-22T09:29:23.025Z,19.18
2018-09-22T09:30:23.006Z,19.19
2018-09-22T09:31:23.014Z,19.24
2018-09-22T09:32:23.028Z,19.34
2018-09-22T09:33:23.016Z,19.51
2018-09-22T09:34:23.281Z,19.63
2018-09-22T09:35:23.033Z,19.7
2018-09-22T09:36:23.300Z,19.74
2018-09-22T09:37:23.281Z,19.55
2018-09-22T09:38:22.762Z,19.4
2018-09-22T09:39:22.759Z,19.26
2018-09-22T09:40:23.019Z,19.14
2018-09-22T09:41:23.040Z,18.92
2018-09-22T09:42:23.038Z,18.7
2018-09-22T09:43:23.540Z,18.58
2018-09-22T09:44:23.352Z,18.58
2018-09-22T09:45:23.032Z,18.63
2018-09-22T09:46:23.301Z,18.59
2018-09-22T09:47:23.030Z,18.52
2018-09-22T09:48:22.782Z,18.63
2018-09-22T09:49:23.082Z,18.74
2018-09-22T09:50:23.291Z,18.89
2018-09-22T09:51:23.035Z,19.08
2018-09-22T09:52:23.294Z,19.04
2018-09-22T09:53:23.038Z,18.96
2018-09-22T09:54:23.381Z,18.9
2018-09-22T09:55:23.306Z,18.98
2018-09-22T09:56:23.046Z,19.09
2018-09-22T09:57:23.049Z,19.18
2018-09-22T09:58:23.045Z,19.3
2018-09-22T09:59:23.108Z,19.44
2018-09-22T10:00:23.068Z,19.47
2018-09-22T10:01:23.056Z,19.51
2018-09-22T10:02:23.053Z,19.71
2018-09-22T10:03:23.336Z,19.74
2018-09-22T10:04:23.255Z,19.62
2018-09-22T10:05:23.073Z,19.52
2018-09-22T10:06:23.318Z,19.29
2018-09-22T10:07:23.325Z,19.3
2018-09-22T10:08:23.334Z,19.22
2018-09-22T10:09:23.084Z,18.99
2018-09-22T10:10:23.075Z,18.96
2018-09-22T10:11:23.081Z,18.92
2018-09-22T10:12:22.832Z,18.95
2018-09-22T10:13:23.079Z,18.78
2018-09-22T10:14:23.336Z,18.75
2018-09-22T10:15:23.351Z,18.71
2018-09-22T10:16:23.338Z,18.73
2018-09-22T10:17:23.112Z,18.65
2018-09-22T10:18:23.359Z,18.88
2018-09-22T10:19:23.685Z,19.07
2018-09-22T10:20:22.834Z,19.31
2018-09-22T10:21:23.087Z,19.41
2018-09-22T10:22:22.839Z,19.55
2018-09-22T10:23:23.108Z,19.48
2018-09-22T10:24:23.354Z,19.52
2018-09-22T10:25:23.099Z,19.37
2018-09-22T10:26:23.352Z,19.3
2018-09-22T10:27:23.111Z,19.27
2018-09-22T10:28:22.878Z,19.26
2018-09-22T10:29:24.161Z,19.36
2018-09-22T10:30:23.369Z,19.33
2018-09-22T10:31:23.103Z,19.29
2018-09-22T10:32:23.155Z,19.48
2018-09-22T10:33:23.121Z,19.56
2018-09-22T10:34:24.211Z,19.54
2018-09-22T10:35:23.118Z,19.58
2018-09-22T10:36:23.376Z,19.74
2018-09-22T10:37:23.126Z,19.73
2018-09-22T10:38:23.113Z,19.51
2018-09-22T10:39:23.182Z,19.36
2018-09-22T10:40:23.122Z,19.29
2018-09-22T10:41:23.372Z,19.24
2018-09-22T10:42:23.648Z,19.21
2018-09-22T10:43:23.113Z,19.34
2018-09-22T10:44:23.129Z,19.34
2018-09-22T10:45:23.363Z,19.24
2018-09-22T10:46:23.113Z,19.27
2018-09-22T10:47:23.137Z,19.22
2018-09-22T10:48:23.155Z,19.29
2018-09-22T10:49:23.447Z,19.16
2018-09-22T10:50:23.133Z,19.09
2018-09-22T10:51:23.401Z,19.12
2018-09-22T10:52:23.157Z,19.12
2018-09-22T10:53:23.411Z,19.12
2018-09-22T10:54:23.155Z,19.19
2018-09-22T10:55:23.420Z,19.16
2018-09-22T10:56:22.929Z,19.26
2018-09-22T10:57:23.142Z,19.36
2018-09-22T10:58:23.158Z,19.36
2018-09-22T10:59:23.157Z,19.51
2018-09-22T11:00:23.159Z,19.49
2018-09-22T11:01:23.449Z,19.49
2018-09-22T11:02:23.537Z,19.45
2018-09-22T11:03:23.363Z,19.37
2018-09-22T11:04:23.717Z,19.49
2018-09-22T11:05:23.411Z,19.55
2018-09-22T11:06:23.164Z,19.67
2018-09-22T11:07:23.433Z,19.7
2018-09-22T11:08:23.162Z,19.85
2018-09-22T11:09:23.478Z,19.84
2018-09-22T11:10:23.426Z,19.84
2018-09-22T11:11:23.525Z,19.89
2018-09-22T11:12:23.427Z,19.81
2018-09-22T11:13:23.437Z,19.85
2018-09-22T11:14:22.907Z,19.77
2018-09-22T11:15:23.427Z,19.62
2018-09-22T11:16:23.327Z,19.48
2018-09-22T11:17:22.913Z,19.52
2018-09-22T11:18:23.177Z,19.51
2018-09-22T11:19:23.488Z,19.52
2018-09-22T11:20:23.173Z,19.52
2018-09-22T11:21:22.918Z,19.54
2018-09-22T11:22:23.180Z,19.7
2018-09-22T11:23:22.937Z,19.84
2018-09-22T11:24:23.186Z,19.95
2018-09-22T11:25:23.188Z,19.92
2018-09-22T11:26:23.192Z,19.77
2018-09-22T11:27:23.191Z,19.91
2018-09-22T11:28:23.195Z,19.84
2018-09-22T11:29:23.196Z,19.77
2018-09-22T11:30:23.219Z,19.73
2018-09-22T11:31:23.189Z,19.73
2018-09-22T11:32:23.476Z,19.73
2018-09-22T11:33:23.461Z,19.76
2018-09-22T11:34:24.855Z,19.99
2018-09-22T11:35:23.213Z,19.91
2018-09-22T11:36:23.216Z,19.69
2018-09-22T11:37:23.232Z,19.47
2018-09-22T11:38:23.678Z,19.41
2018-09-22T11:39:23.214Z,19.21
2018-09-22T11:40:23.961Z,19.12
2018-09-22T11:41:23.482Z,19.12
2018-09-22T11:42:23.485Z,19
2018-09-22T11:43:23.218Z,18.96
2018-09-22T11:44:23.481Z,18.86
2018-09-22T11:45:23.227Z,18.84
2018-09-22T11:46:23.329Z,18.86
2018-09-22T11:47:23.481Z,18.84
2018-09-22T11:48:23.491Z,18.84
2018-09-22T11:49:23.279Z,18.88
2018-09-22T11:50:22.970Z,18.92
2018-09-22T11:51:23.253Z,19.14
2018-09-22T11:52:23.492Z,19.15
2018-09-22T11:53:23.489Z,19.26
2018-09-22T11:54:23.492Z,19.34
2018-09-22T11:55:23.233Z,19.39
2018-09-22T11:56:23.334Z,19.44
2018-09-22T11:57:23.235Z,19.45
2018-09-22T11:58:23.257Z,19.47
2018-09-22T11:59:22.982Z,19.58
2018-09-22T12:00:23.243Z,19.66
2018-09-22T12:01:23.249Z,19.79
2018-09-22T12:02:23.007Z,19.84
2018-09-22T12:03:23.246Z,19.81
2018-09-22T12:04:23.559Z,19.91
2018-09-22T12:05:23.249Z,19.99
2018-09-22T12:06:23.759Z,20.09
2018-09-22T12:07:23.256Z,20.09
2018-09-22T12:08:23.514Z,20.22
2018-09-22T12:09:23.253Z,20.21
2018-09-22T12:10:23.254Z,20.25
2018-09-22T12:11:23.255Z,20.19
2018-09-22T12:12:23.014Z,20.19
2018-09-22T12:13:23.269Z,20.36
2018-09-22T12:14:23.580Z,20.28
2018-09-22T12:15:23.026Z,20.4
2018-09-22T12:16:23.278Z,20.43
2018-09-22T12:17:23.273Z,20.63
2018-09-22T12:18:23.294Z,20.69
2018-09-22T12:19:23.579Z,21
2018-09-22T12:20:23.549Z,21
2018-09-22T12:21:23.512Z,21.11
2018-09-22T12:22:23.552Z,21.17
2018-09-22T12:23:23.567Z,21.35
2018-09-22T12:24:23.075Z,21.4
2018-09-22T12:25:23.533Z,21.55
2018-09-22T12:26:23.549Z,21.55
2018-09-22T12:27:23.296Z,21.42
2018-09-22T12:28:23.557Z,21.39
2018-09-22T12:29:23.569Z,21.21
2018-09-22T12:30:23.561Z,21.2
2018-09-22T12:31:23.559Z,21.15
2018-09-22T12:32:23.303Z,21.2
2018-09-22T12:33:23.050Z,21.24
2018-09-22T12:34:23.348Z,21.25
2018-09-22T12:35:23.301Z,21.42
2018-09-22T12:36:23.387Z,21.36
2018-09-22T12:37:23.308Z,21.37
2018-09-22T12:38:23.308Z,21.5
2018-09-22T12:39:23.377Z,21.46
2018-09-22T12:40:23.577Z,21.57
2018-09-22T12:41:23.318Z,21.55
2018-09-22T12:42:23.349Z,21.43
2018-09-22T12:43:23.336Z,21.35
2018-09-22T12:44:23.584Z,21.22
2018-09-22T12:45:23.328Z,21.06
2018-09-22T12:46:23.358Z,20.99
2018-09-22T12:47:23.365Z,20.9
2018-09-22T12:48:23.602Z,20.88
2018-09-22T12:49:23.158Z,20.81
2018-09-22T12:50:23.615Z,20.85
2018-09-22T12:51:23.369Z,20.77
2018-09-22T12:52:23.605Z,20.74
2018-09-22T12:53:23.359Z,20.7
2018-09-22T12:54:23.602Z,20.72
2018-09-22T12:55:23.602Z,20.65
2018-09-22T12:56:23.699Z,20.69